createdAt,value
2023-02-14T00:01:16.780Z,15.02
2023-02-14T00:06:40.912Z,14.32
2023-02-14T00:12:07.548Z,11.23
2023-02-14T00:17:31.352Z,12.50
2023-02-14T00:22:55.052Z,11.30
2023-02-14T00:28:20.112Z,11.55
2023-02-14T00:33:43.818Z,12.38
2023-02-14T00:39:10.278Z,10.13
2023-02-14T00:44:35.569Z,13.30
2023-02-14T00:50:02.828Z,8.45
2023-02-14T00:55:26.659Z,9.23
2023-02-14T01:00:51.859Z,9.57
2023-02-14T01:06:17.341Z,12.93
2023-02-14T01:11:41.097Z,10.60
2023-02-14T01:17:06.531Z,12.75
2023-02-14T01:22:30.262Z,13.13
2023-02-14T01:27:53.995Z,11.45
2023-02-14T01:33:19.107Z,11.65
2023-02-14T01:38:43.545Z,11.50
2023-02-14T01:44:09.043Z,9.90
2023-02-14T01:49:39.124Z,12.00
2023-02-14T01:55:07.156Z,11.60
2023-02-14T02:00:53.572Z,10.32
2023-02-14T02:06:23.569Z,8.95
2023-02-14T02:11:47.336Z,8.05
2023-02-14T02:17:25.113Z,10.38
2023-02-14T02:23:19.471Z,11.75
2023-02-14T02:29:08.824Z,10.82
2023-02-14T02:35:11.307Z,11.65
2023-02-14T02:40:48.041Z,10.95
2023-02-14T02:46:33.625Z,11.25
2023-02-14T02:52:17.720Z,11.45
2023-02-14T02:57:43.773Z,12.20
2023-02-14T03:03:25.880Z,10.38
2023-02-14T03:08:51.849Z,11.32
2023-02-14T03:14:22.286Z,12.75
2023-02-14T03:20:12.331Z,11.65
2023-02-14T03:25:46.374Z,12.48
2023-02-14T03:31:19.051Z,13.15
2023-02-14T03:36:48.797Z,13.32
2023-02-14T03:42:20.065Z,12.20
2023-02-14T03:47:45.057Z,14.57
2023-02-14T03:53:11.090Z,11.75
2023-02-14T03:58:39.998Z,13.52
2023-02-14T04:04:06.751Z,13.38
2023-02-14T04:09:30.470Z,12.73
2023-02-14T04:14:55.494Z,12.95
2023-02-14T04:20:19.659Z,14.32
2023-02-14T04:25:45.633Z,13.07
2023-02-14T04:31:11.525Z,13.90
2023-02-14T04:36:35.274Z,14.85
2023-02-14T04:41:59.048Z,12.38
2023-02-14T04:47:24.184Z,15.95
2023-02-14T04:52:47.857Z,14.07
2023-02-14T04:58:11.560Z,14.18
2023-02-14T05:03:36.747Z,13.60
2023-02-14T05:09:00.459Z,13.15
2023-02-14T05:14:24.356Z,13.23
2023-02-14T05:19:49.492Z,13.88
2023-02-14T05:25:13.202Z,15.13
2023-02-14T05:30:37.069Z,14.40
2023-02-14T05:36:02.958Z,14.25
2023-02-14T05:41:26.696Z,15.27
2023-02-14T05:46:50.613Z,12.38
2023-02-14T05:52:15.978Z,13.70
2023-02-14T05:57:39.784Z,15.50
2023-02-14T06:03:03.467Z,13.82
2023-02-14T06:08:28.596Z,13.82
2023-02-14T06:13:52.359Z,13.35
2023-02-14T06:19:16.114Z,13.52
2023-02-14T06:24:41.251Z,12.52
2023-02-14T06:30:07.002Z,11.85
2023-02-14T06:35:30.730Z,13.48
2023-02-14T06:40:55.827Z,14.00
2023-02-14T06:46:20.199Z,15.43
2023-02-14T06:51:43.936Z,14.30
2023-02-14T06:57:09.057Z,13.65
2023-02-14T07:02:32.922Z,11.60
2023-02-14T07:07:56.655Z,7.05
2023-02-14T07:13:21.823Z,12.93
2023-02-14T07:18:45.617Z,12.88
2023-02-14T07:24:09.443Z,11.23
2023-02-14T07:29:34.495Z,9.50
2023-02-14T07:34:58.259Z,10.25
2023-02-14T07:40:22.070Z,9.98
2023-02-14T07:45:47.212Z,12.27
2023-02-14T07:51:11.435Z,14.73
2023-02-14T07:56:35.181Z,13.50
2023-02-14T08:02:00.507Z,13.65
2023-02-14T08:07:24.311Z,13.80
2023-02-14T08:13:00.195Z,13.82
2023-02-14T08:18:27.205Z,12.93
2023-02-14T08:23:50.878Z,12.10
2023-02-14T08:29:16.617Z,12.25
2023-02-14T08:34:44.761Z,14.73
2023-02-14T08:40:09.523Z,15.35
2023-02-14T08:45:33.441Z,14.70
2023-02-14T08:50:59.321Z,13.05
2023-02-14T08:56:23.721Z,14.43
2023-02-14T09:01:47.440Z,11.40
2023-02-14T09:07:12.680Z,12.45
2023-02-14T09:12:36.383Z,14.73
2023-02-14T09:18:00.200Z,13.70
2023-02-14T09:23:25.478Z,14.63
2023-02-14T09:28:49.310Z,16.15
2023-02-14T09:34:30.746Z,16.90
2023-02-14T09:39:55.848Z,14.73
2023-02-14T09:45:22.765Z,15.43
2023-02-14T09:50:50.837Z,15.13
2023-02-14T09:56:51.396Z,14.23
2023-02-14T10:02:49.396Z,15.10
2023-02-14T10:13:52.003Z,14.45
2023-02-14T10:19:20.822Z,15.67
2023-02-14T10:24:48.726Z,15.00
2023-02-14T10:30:16.312Z,13.95
2023-02-14T10:35:45.988Z,14.00
2023-02-14T10:41:25.066Z,12.90
2023-02-14T10:46:58.731Z,12.40
2023-02-14T10:52:26.457Z,14.35
2023-02-14T10:57:54.167Z,13.05
2023-02-14T11:03:20.127Z,13.18
2023-02-14T11:08:43.994Z,11.07
2023-02-14T11:14:30.419Z,10.57
2023-02-14T11:20:02.014Z,10.27
2023-02-14T11:25:27.756Z,9.98
2023-02-14T11:30:52.407Z,8.85
2023-02-14T11:36:18.509Z,7.82
2023-02-14T11:42:18.708Z,7.15
2023-02-14T11:47:43.030Z,5.97
2023-02-14T11:53:12.559Z,6.30
2023-02-14T11:58:40.570Z,7.10
2023-02-14T12:04:07.501Z,8.10
2023-02-14T12:09:34.234Z,7.30
2023-02-14T12:15:22.475Z,6.97
2023-02-14T12:20:54.220Z,7.43
2023-02-14T12:26:28.830Z,8.40
2023-02-14T12:31:52.748Z,7.55
2023-02-14T12:37:27.467Z,8.32
2023-02-14T12:43:11.292Z,7.70
2023-02-14T12:48:48.781Z,6.82
2023-02-14T12:54:29.002Z,6.95
2023-02-14T13:00:03.921Z,7.10
2023-02-14T13:05:36.913Z,6.80
2023-02-14T13:11:09.871Z,6.57
2023-02-14T13:16:40.810Z,8.10
2023-02-14T13:22:06.379Z,8.20
2023-02-14T13:27:34.170Z,8.48
2023-02-14T13:33:03.987Z,8.57
2023-02-14T13:38:28.499Z,9.93
2023-02-14T13:43:55.283Z,9.23
2023-02-14T13:49:34.750Z,8.52
2023-02-14T13:55:04.552Z,8.38
2023-02-14T14:00:40.887Z,8.52
2023-02-14T14:06:08.670Z,8.90
2023-02-14T14:12:02.335Z,8.80
2023-02-14T14:17:29.446Z,8.98
2023-02-14T14:22:57.186Z,8.75
2023-02-14T14:28:22.646Z,8.20
2023-02-14T14:33:46.687Z,8.70
2023-02-14T14:39:12.228Z,9.43
2023-02-14T14:44:38.931Z,7.63
2023-02-14T14:50:17.393Z,8.65
2023-02-14T14:55:51.881Z,8.25
2023-02-14T15:01:32.277Z,8.15
2023-02-14T15:06:57.494Z,8.13
2023-02-14T15:12:43.563Z,8.32
2023-02-14T15:18:18.221Z,9.13
2023-02-14T15:23:44.175Z,10.63
2023-02-14T15:29:09.298Z,8.55
2023-02-14T15:34:36.821Z,8.80
2023-02-14T15:40:01.149Z,9.77
2023-02-14T15:45:31.722Z,8.52
2023-02-14T15:50:59.077Z,8.50
2023-02-14T15:56:26.138Z,7.68
2023-02-14T16:01:54.282Z,8.48
2023-02-14T16:07:24.556Z,9.52
2023-02-14T16:12:57.616Z,8.35
2023-02-14T16:18:36.958Z,9.35
2023-02-14T16:24:13.602Z,9.32
2023-02-14T16:29:37.870Z,11.70
2023-02-14T16:35:03.058Z,10.48
2023-02-14T16:40:28.979Z,11.07
2023-02-14T16:45:52.898Z,10.35
2023-02-14T16:51:18.121Z,11.88
2023-02-14T16:56:45.465Z,12.43
2023-02-14T17:02:09.441Z,13.65
2023-02-14T17:07:34.722Z,15.18
2023-02-14T17:13:00.735Z,14.18
2023-02-14T17:18:26.093Z,15.93
2023-02-14T17:23:51.589Z,15.85
2023-02-14T17:29:15.331Z,15.68
2023-02-14T17:34:39.327Z,16.40
2023-02-14T17:40:05.958Z,14.45
2023-02-14T17:45:29.818Z,15.68
2023-02-14T17:50:53.645Z,18.90
2023-02-14T17:56:20.724Z,17.08
2023-02-14T18:01:44.596Z,15.65
2023-02-14T18:07:08.451Z,17.13
2023-02-14T18:12:35.106Z,15.10
2023-02-14T18:17:58.989Z,16.27
2023-02-14T18:23:23.220Z,17.27
2023-02-14T18:28:50.919Z,20.50
2023-02-14T18:34:14.672Z,17.95
2023-02-14T18:39:38.602Z,19.20
2023-02-14T18:45:03.749Z,21.15
2023-02-14T18:50:27.545Z,21.55
2023-02-14T18:55:51.270Z,20.80
2023-02-14T19:01:18.166Z,19.73
2023-02-14T19:06:43.170Z,17.17
2023-02-14T19:12:07.492Z,17.23
2023-02-14T19:17:32.708Z,19.15
2023-02-14T19:22:56.436Z,18.95
2023-02-14T19:28:20.222Z,19.13
2023-02-14T19:33:48.018Z,21.80
2023-02-14T19:39:12.895Z,22.35
2023-02-14T19:44:36.722Z,21.67
2023-02-14T19:50:01.886Z,18.17
2023-02-14T19:55:27.829Z,18.02
2023-02-14T20:00:58.052Z,18.50
2023-02-14T20:06:25.896Z,29.57
2023-02-14T20:11:51.316Z,20.42
2023-02-14T20:17:17.166Z,20.40
2023-02-14T20:22:42.679Z,22.75
2023-02-14T20:28:06.861Z,25.75
2023-02-14T20:33:30.657Z,26.45
2023-02-14T20:38:57.266Z,20.45
2023-02-14T20:44:21.700Z,17.63
2023-02-14T20:49:45.804Z,23.30
2023-02-14T20:55:11.453Z,18.98
2023-02-14T21:00:35.278Z,18.95
2023-02-14T21:05:59.060Z,18.83
2023-02-14T21:11:25.114Z,17.65
2023-02-14T21:16:48.924Z,18.58
2023-02-14T21:22:12.757Z,25.33
2023-02-14T21:27:38.175Z,19.48
2023-02-14T21:33:02.362Z,18.90
2023-02-14T21:38:26.146Z,18.25
2023-02-14T21:43:54.163Z,18.95
2023-02-14T21:49:35.141Z,19.33
2023-02-14T21:54:58.923Z,17.02
2023-02-14T22:00:24.206Z,15.65
2023-02-14T22:05:48.046Z,18.15
2023-02-14T22:11:13.978Z,18.52
2023-02-14T22:16:39.097Z,18.90
2023-02-14T22:22:02.838Z,17.02
2023-02-14T22:27:26.546Z,19.05
2023-02-14T22:32:51.772Z,18.58
2023-02-14T22:38:15.435Z,17.80
2023-02-14T22:43:39.974Z,17.27
2023-02-14T22:49:05.860Z,16.52
2023-02-14T22:54:30.412Z,18.25
2023-02-14T22:59:54.189Z,18.45
2023-02-14T23:05:19.282Z,16.35
2023-02-14T23:10:43.597Z,16.20
2023-02-14T23:16:24.902Z,16.05
2023-02-14T23:21:56.183Z,14.67
2023-02-14T23:27:24.483Z,15.10
2023-02-14T23:32:48.323Z,16.05
2023-02-14T23:38:13.496Z,15.40
2023-02-14T23:43:37.244Z,15.68
2023-02-14T23:49:00.959Z,14.27
2023-02-14T23:54:26.593Z,14.82
2023-02-14T23:59:50.381Z,13.43
